sensor_id;sensor_type;location;lat;lon;timestamp;P1;durP1;ratioP1;P2;durP2;ratioP2
57303;SDS011;43150;50.986;18.208;2023-07-09T00:00:13;10.50;;;8.20;;
57303;SDS011;43150;50.986;18.208;2023-07-09T00:02:39;8.80;;;7.50;;
57303;SDS011;43150;50.986;18.208;2023-07-09T00:05:05;8.70;;;7.80;;
57303;SDS011;43150;50.986;18.208;2023-07-09T00:07:31;9.60;;;8.00;;
57303;SDS011;43150;50.986;18.208;2023-07-09T00:09:57;9.70;;;8.70;;
57303;SDS011;43150;50.986;18.208;2023-07-09T00:12:23;9.80;;;8.80;;
57303;SDS011;43150;50.986;18.208;2023-07-09T00:14:48;9.30;;;8.30;;
57303;SDS011;43150;50.986;18.208;2023-07-09T00:17:25;10.20;;;8.20;;
57303;SDS011;43150;50.986;18.208;2023-07-09T00:19:52;9.20;;;8.40;;
57303;SDS011;43150;50.986;18.208;2023-07-09T00:22:18;9.30;;;8.40;;
57303;SDS011;43150;50.986;18.208;2023-07-09T00:24:49;7.90;;;6.70;;
57303;SDS011;43150;50.986;18.208;2023-07-09T00:27:19;11.00;;;9.40;;
57303;SDS011;43150;50.986;18.208;2023-07-09T00:29:45;12.10;;;9.00;;
57303;SDS011;43150;50.986;18.208;2023-07-09T00:32:15;8.60;;;7.80;;
57303;SDS011;43150;50.986;18.208;2023-07-09T00:34:44;9.80;;;8.80;;
57303;SDS011;43150;50.986;18.208;2023-07-09T00:37:21;8.90;;;8.00;;
57303;SDS011;43150;50.986;18.208;2023-07-09T00:39:51;12.40;;;8.80;;
57303;SDS011;43150;50.986;18.208;2023-07-09T00:42:17;10.00;;;9.00;;
57303;SDS011;43150;50.986;18.208;2023-07-09T00:44:49;9.30;;;8.10;;
57303;SDS011;43150;50.986;18.208;2023-07-09T00:47:23;10.70;;;9.40;;
57303;SDS011;43150;50.986;18.208;2023-07-09T00:49:51;9.20;;;8.30;;
57303;SDS011;43150;50.986;18.208;2023-07-09T00:54:48;9.30;;;7.60;;
57303;SDS011;43150;50.986;18.208;2023-07-09T00:57:15;9.50;;;8.60;;
57303;SDS011;43150;50.986;18.208;2023-07-09T00:59:48;8.50;;;7.70;;
57303;SDS011;43150;50.986;18.208;2023-07-09T01:02:15;11.30;;;9.10;;
57303;SDS011;43150;50.986;18.208;2023-07-09T01:04:43;10.20;;;9.20;;
57303;SDS011;43150;50.986;18.208;2023-07-09T01:07:09;9.40;;;8.40;;
57303;SDS011;43150;50.986;18.208;2023-07-09T01:09:34;11.80;;;9.10;;
57303;SDS011;43150;50.986;18.208;2023-07-09T01:12:06;9.30;;;8.40;;
57303;SDS011;43150;50.986;18.208;2023-07-09T01:14:33;9.00;;;8.20;;
57303;SDS011;43150;50.986;18.208;2023-07-09T01:17:02;9.40;;;8.30;;
57303;SDS011;43150;50.986;18.208;2023-07-09T01:19:29;9.30;;;8.20;;
57303;SDS011;43150;50.986;18.208;2023-07-09T01:21:59;8.80;;;8.00;;
57303;SDS011;43150;50.986;18.208;2023-07-09T01:27:09;9.30;;;7.90;;
57303;SDS011;43150;50.986;18.208;2023-07-09T01:29:34;9.20;;;8.40;;
57303;SDS011;43150;50.986;18.208;2023-07-09T01:32:01;9.70;;;8.60;;
57303;SDS011;43150;50.986;18.208;2023-07-09T01:34:28;11.40;;;9.30;;
57303;SDS011;43150;50.986;18.208;2023-07-09T01:36:55;12.20;;;7.30;;
57303;SDS011;43150;50.986;18.208;2023-07-09T01:39:21;9.90;;;9.00;;
57303;SDS011;43150;50.986;18.208;2023-07-09T01:41:48;10.50;;;9.40;;
57303;SDS011;43150;50.986;18.208;2023-07-09T01:44:14;12.30;;;9.90;;
57303;SDS011;43150;50.986;18.208;2023-07-09T01:46:40;11.00;;;9.90;;
57303;SDS011;43150;50.986;18.208;2023-07-09T01:49:07;11.70;;;10.50;;
57303;SDS011;43150;50.986;18.208;2023-07-09T01:51:34;11.40;;;10.20;;
57303;SDS011;43150;50.986;18.208;2023-07-09T01:54:01;12.70;;;10.20;;
57303;SDS011;43150;50.986;18.208;2023-07-09T01:56:27;11.10;;;9.90;;
57303;SDS011;43150;50.986;18.208;2023-07-09T01:58:54;11.50;;;10.40;;
57303;SDS011;43150;50.986;18.208;2023-07-09T02:01:30;11.30;;;8.30;;
57303;SDS011;43150;50.986;18.208;2023-07-09T02:03:55;10.50;;;9.50;;
57303;SDS011;43150;50.986;18.208;2023-07-09T02:06:21;10.90;;;9.70;;
57303;SDS011;43150;50.986;18.208;2023-07-09T02:08:49;10.30;;;9.30;;
57303;SDS011;43150;50.986;18.208;2023-07-09T02:11:24;10.20;;;8.90;;
57303;SDS011;43150;50.986;18.208;2023-07-09T02:13:49;10.30;;;9.30;;
57303;SDS011;43150;50.986;18.208;2023-07-09T02:16:18;9.30;;;8.40;;
57303;SDS011;43150;50.986;18.208;2023-07-09T02:18:43;9.80;;;8.90;;
57303;SDS011;43150;50.986;18.208;2023-07-09T02:21:09;11.00;;;8.50;;
57303;SDS011;43150;50.986;18.208;2023-07-09T02:23:35;9.70;;;8.70;;
57303;SDS011;43150;50.986;18.208;2023-07-09T02:26:01;9.60;;;8.10;;
57303;SDS011;43150;50.986;18.208;2023-07-09T02:28:26;9.10;;;7.80;;
57303;SDS011;43150;50.986;18.208;2023-07-09T02:30:53;10.40;;;8.60;;
57303;SDS011;43150;50.986;18.208;2023-07-09T02:33:19;9.10;;;8.20;;
57303;SDS011;43150;50.986;18.208;2023-07-09T02:35:45;8.60;;;7.70;;
57303;SDS011;43150;50.986;18.208;2023-07-09T02:38:11;9.50;;;6.70;;
57303;SDS011;43150;50.986;18.208;2023-07-09T02:40:36;9.70;;;8.70;;
57303;SDS011;43150;50.986;18.208;2023-07-09T02:43:02;8.40;;;7.60;;
57303;SDS011;43150;50.986;18.208;2023-07-09T02:45:27;8.60;;;7.70;;
57303;SDS011;43150;50.986;18.208;2023-07-09T02:47:53;8.80;;;8.00;;
57303;SDS011;43150;50.986;18.208;2023-07-09T02:50:18;8.40;;;7.70;;
57303;SDS011;43150;50.986;18.208;2023-07-09T02:52:44;8.90;;;8.10;;
57303;SDS011;43150;50.986;18.208;2023-07-09T02:55:10;9.20;;;6.50;;
57303;SDS011;43150;50.986;18.208;2023-07-09T02:57:35;10.10;;;9.10;;
57303;SDS011;43150;50.986;18.208;2023-07-09T03:00:01;13.00;;;9.50;;
57303;SDS011;43150;50.986;18.208;2023-07-09T03:02:30;10.30;;;9.30;;
57303;SDS011;43150;50.986;18.208;2023-07-09T03:04:55;10.40;;;9.20;;
57303;SDS011;43150;50.986;18.208;2023-07-09T03:07:21;11.30;;;10.20;;
57303;SDS011;43150;50.986;18.208;2023-07-09T03:09:47;10.50;;;9.40;;
57303;SDS011;43150;50.986;18.208;2023-07-09T03:12:12;8.90;;;8.10;;
57303;SDS011;43150;50.986;18.208;2023-07-09T03:14:38;11.10;;;7.30;;
57303;SDS011;43150;50.986;18.208;2023-07-09T03:17:04;9.00;;;6.90;;
57303;SDS011;43150;50.986;18.208;2023-07-09T03:19:29;9.50;;;8.60;;
57303;SDS011;43150;50.986;18.208;2023-07-09T03:21:55;11.30;;;10.10;;
57303;SDS011;43150;50.986;18.208;2023-07-09T03:31:12;12.00;;;10.50;;
57303;SDS011;43150;50.986;18.208;2023-07-09T03:33:37;10.30;;;9.30;;
57303;SDS011;43150;50.986;18.208;2023-07-09T03:36:03;11.70;;;10.40;;
57303;SDS011;43150;50.986;18.208;2023-07-09T03:38:32;11.90;;;10.70;;
57303;SDS011;43150;50.986;18.208;2023-07-09T03:41:02;11.90;;;10.80;;
57303;SDS011;43150;50.986;18.208;2023-07-09T03:43:28;13.40;;;10.10;;
57303;SDS011;43150;50.986;18.208;2023-07-09T03:45:53;13.10;;;10.30;;
57303;SDS011;43150;50.986;18.208;2023-07-09T03:48:19;11.10;;;9.80;;
57303;SDS011;43150;50.986;18.208;2023-07-09T03:50:45;11.00;;;9.90;;
57303;SDS011;43150;50.986;18.208;2023-07-09T03:53:12;11.70;;;10.50;;
57303;SDS011;43150;50.986;18.208;2023-07-09T03:55:37;11.70;;;10.50;;
57303;SDS011;43150;50.986;18.208;2023-07-09T03:58:03;10.90;;;9.90;;
57303;SDS011;43150;50.986;18.208;2023-07-09T04:00:30;11.00;;;9.90;;
57303;SDS011;43150;50.986;18.208;2023-07-09T04:02:55;10.00;;;8.90;;
57303;SDS011;43150;50.986;18.208;2023-07-09T04:05:24;10.10;;;9.20;;
57303;SDS011;43150;50.986;18.208;2023-07-09T04:07:50;10.40;;;9.30;;
57303;SDS011;43150;50.986;18.208;2023-07-09T04:10:15;10.30;;;9.30;;
57303;SDS011;43150;50.986;18.208;2023-07-09T04:12:41;10.30;;;8.30;;
57303;SDS011;43150;50.986;18.208;2023-07-09T04:15:07;9.60;;;8.60;;
57303;SDS011;43150;50.986;18.208;2023-07-09T04:17:34;9.70;;;8.70;;
57303;SDS011;43150;50.986;18.208;2023-07-09T04:20:00;9.70;;;8.60;;
57303;SDS011;43150;50.986;18.208;2023-07-09T04:22:26;9.80;;;8.80;;
57303;SDS011;43150;50.986;18.208;2023-07-09T04:24:51;9.40;;;8.50;;
57303;SDS011;43150;50.986;18.208;2023-07-09T04:27:21;9.40;;;8.50;;
57303;SDS011;43150;50.986;18.208;2023-07-09T04:29:46;9.30;;;8.40;;
57303;SDS011;43150;50.986;18.208;2023-07-09T04:32:14;9.20;;;8.20;;
57303;SDS011;43150;50.986;18.208;2023-07-09T04:34:40;8.90;;;8.10;;
57303;SDS011;43150;50.986;18.208;2023-07-09T04:37:07;9.00;;;7.80;;
57303;SDS011;43150;50.986;18.208;2023-07-09T04:39:33;8.70;;;7.90;;
57303;SDS011;43150;50.986;18.208;2023-07-09T04:41:58;9.20;;;8.30;;
57303;SDS011;43150;50.986;18.208;2023-07-09T04:44:24;9.20;;;8.30;;
57303;SDS011;43150;50.986;18.208;2023-07-09T04:46:53;9.60;;;8.60;;
57303;SDS011;43150;50.986;18.208;2023-07-09T04:49:23;9.50;;;8.10;;
57303;SDS011;43150;50.986;18.208;2023-07-09T04:51:49;8.60;;;7.80;;
57303;SDS011;43150;50.986;18.208;2023-07-09T04:54:15;10.20;;;8.10;;
57303;SDS011;43150;50.986;18.208;2023-07-09T04:56:41;10.10;;;8.40;;
57303;SDS011;43150;50.986;18.208;2023-07-09T04:59:10;9.00;;;8.00;;
57303;SDS011;43150;50.986;18.208;2023-07-09T05:01:36;8.50;;;7.70;;
57303;SDS011;43150;50.986;18.208;2023-07-09T05:04:02;9.10;;;7.10;;
57303;SDS011;43150;50.986;18.208;2023-07-09T05:06:27;8.60;;;7.10;;
57303;SDS011;43150;50.986;18.208;2023-07-09T05:08:53;9.10;;;7.20;;
57303;SDS011;43150;50.986;18.208;2023-07-09T05:11:19;8.20;;;7.40;;
57303;SDS011;43150;50.986;18.208;2023-07-09T05:13:44;9.60;;;6.80;;
57303;SDS011;43150;50.986;18.208;2023-07-09T05:16:10;6.90;;;6.20;;
57303;SDS011;43150;50.986;18.208;2023-07-09T05:18:36;7.70;;;6.50;;
57303;SDS011;43150;50.986;18.208;2023-07-09T05:21:04;8.30;;;6.50;;
57303;SDS011;43150;50.986;18.208;2023-07-09T05:23:30;6.40;;;5.70;;
57303;SDS011;43150;50.986;18.208;2023-07-09T05:25:56;7.00;;;6.00;;
57303;SDS011;43150;50.986;18.208;2023-07-09T05:28:23;6.70;;;6.00;;
57303;SDS011;43150;50.986;18.208;2023-07-09T05:30:49;7.10;;;5.90;;
57303;SDS011;43150;50.986;18.208;2023-07-09T05:33:17;7.50;;;5.90;;
57303;SDS011;43150;50.986;18.208;2023-07-09T05:35:43;6.30;;;5.70;;
57303;SDS011;43150;50.986;18.208;2023-07-09T05:38:08;6.30;;;5.20;;
57303;SDS011;43150;50.986;18.208;2023-07-09T05:40:34;7.20;;;6.00;;
57303;SDS011;43150;50.986;18.208;2023-07-09T05:42:59;7.90;;;6.30;;
57303;SDS011;43150;50.986;18.208;2023-07-09T05:45:25;7.60;;;6.50;;
57303;SDS011;43150;50.986;18.208;2023-07-09T05:47:50;7.60;;;6.00;;
57303;SDS011;43150;50.986;18.208;2023-07-09T05:50:16;7.00;;;6.20;;
57303;SDS011;43150;50.986;18.208;2023-07-09T05:52:41;7.00;;;6.20;;
57303;SDS011;43150;50.986;18.208;2023-07-09T05:55:08;7.20;;;5.40;;
57303;SDS011;43150;50.986;18.208;2023-07-09T05:57:34;6.50;;;5.40;;
57303;SDS011;43150;50.986;18.208;2023-07-09T06:00:00;7.10;;;5.60;;
57303;SDS011;43150;50.986;18.208;2023-07-09T06:02:26;6.00;;;5.40;;
57303;SDS011;43150;50.986;18.208;2023-07-09T06:04:52;6.00;;;5.30;;
57303;SDS011;43150;50.986;18.208;2023-07-09T06:07:18;7.70;;;5.30;;
57303;SDS011;43150;50.986;18.208;2023-07-09T06:09:47;8.00;;;6.10;;
57303;SDS011;43150;50.986;18.208;2023-07-09T06:12:13;6.40;;;5.40;;
57303;SDS011;43150;50.986;18.208;2023-07-09T06:14:39;6.30;;;5.50;;
57303;SDS011;43150;50.986;18.208;2023-07-09T06:17:04;7.00;;;5.70;;
57303;SDS011;43150;50.986;18.208;2023-07-09T06:19:30;5.90;;;5.40;;
57303;SDS011;43150;50.986;18.208;2023-07-09T06:21:56;5.60;;;5.10;;
57303;SDS011;43150;50.986;18.208;2023-07-09T06:24:22;7.50;;;5.00;;
57303;SDS011;43150;50.986;18.208;2023-07-09T06:26:47;7.30;;;4.90;;
57303;SDS011;43150;50.986;18.208;2023-07-09T06:29:13;6.10;;;4.90;;
57303;SDS011;43150;50.986;18.208;2023-07-09T06:31:38;7.20;;;5.30;;
57303;SDS011;43150;50.986;18.208;2023-07-09T06:34:06;5.10;;;4.10;;
57303;SDS011;43150;50.986;18.208;2023-07-09T06:36:32;9.60;;;4.30;;
57303;SDS011;43150;50.986;18.208;2023-07-09T06:38:58;4.60;;;4.10;;
57303;SDS011;43150;50.986;18.208;2023-07-09T06:41:23;4.80;;;3.80;;
57303;SDS011;43150;50.986;18.208;2023-07-09T06:43:49;4.70;;;4.10;;
57303;SDS011;43150;50.986;18.208;2023-07-09T06:46:15;5.40;;;4.10;;
57303;SDS011;43150;50.986;18.208;2023-07-09T06:48:41;5.60;;;4.30;;
57303;SDS011;43150;50.986;18.208;2023-07-09T06:51:06;5.40;;;3.80;;
57303;SDS011;43150;50.986;18.208;2023-07-09T06:53:32;4.70;;;3.80;;
57303;SDS011;43150;50.986;18.208;2023-07-09T06:55:58;4.00;;;3.60;;
57303;SDS011;43150;50.986;18.208;2023-07-09T06:58:28;5.60;;;3.70;;
57303;SDS011;43150;50.986;18.208;2023-07-09T07:00:54;4.10;;;3.20;;
57303;SDS011;43150;50.986;18.208;2023-07-09T07:03:21;3.50;;;2.90;;
57303;SDS011;43150;50.986;18.208;2023-07-09T07:05:47;4.10;;;3.30;;
57303;SDS011;43150;50.986;18.208;2023-07-09T07:08:15;5.20;;;2.90;;
57303;SDS011;43150;50.986;18.208;2023-07-09T07:10:41;3.50;;;3.20;;
57303;SDS011;43150;50.986;18.208;2023-07-09T07:13:07;4.50;;;3.40;;
57303;SDS011;43150;50.986;18.208;2023-07-09T07:15:33;4.10;;;3.40;;
57303;SDS011;43150;50.986;18.208;2023-07-09T07:17:59;3.40;;;2.90;;
57303;SDS011;43150;50.986;18.208;2023-07-09T07:20:24;3.50;;;3.10;;
57303;SDS011;43150;50.986;18.208;2023-07-09T07:22:57;6.10;;;3.10;;
57303;SDS011;43150;50.986;18.208;2023-07-09T07:25:23;3.30;;;2.90;;
57303;SDS011;43150;50.986;18.208;2023-07-09T07:27:49;3.40;;;2.90;;
57303;SDS011;43150;50.986;18.208;2023-07-09T07:30:14;2.90;;;2.70;;
57303;SDS011;43150;50.986;18.208;2023-07-09T07:32:44;4.50;;;3.20;;
57303;SDS011;43150;50.986;18.208;2023-07-09T07:35:10;3.50;;;2.90;;
57303;SDS011;43150;50.986;18.208;2023-07-09T07:37:35;3.90;;;2.90;;
57303;SDS011;43150;50.986;18.208;2023-07-09T07:40:01;3.10;;;2.80;;
57303;SDS011;43150;50.986;18.208;2023-07-09T07:42:30;3.10;;;2.80;;
57303;SDS011;43150;50.986;18.208;2023-07-09T07:44:56;3.60;;;2.70;;
57303;SDS011;43150;50.986;18.208;2023-07-09T07:47:25;3.70;;;2.80;;
57303;SDS011;43150;50.986;18.208;2023-07-09T07:49:52;3.80;;;2.80;;
57303;SDS011;43150;50.986;18.208;2023-07-09T07:52:18;4.70;;;2.60;;
57303;SDS011;43150;50.986;18.208;2023-07-09T07:54:44;3.10;;;2.80;;
57303;SDS011;43150;50.986;18.208;2023-07-09T07:57:10;2.80;;;2.60;;
57303;SDS011;43150;50.986;18.208;2023-07-09T07:59:36;2.40;;;2.20;;
57303;SDS011;43150;50.986;18.208;2023-07-09T08:02:02;2.90;;;2.60;;
57303;SDS011;43150;50.986;18.208;2023-07-09T08:04:28;3.70;;;2.60;;
57303;SDS011;43150;50.986;18.208;2023-07-09T08:06:53;4.50;;;2.60;;
57303;SDS011;43150;50.986;18.208;2023-07-09T08:09:19;2.50;;;2.30;;
57303;SDS011;43150;50.986;18.208;2023-07-09T08:11:45;3.20;;;2.50;;
57303;SDS011;43150;50.986;18.208;2023-07-09T08:14:11;2.60;;;2.40;;
57303;SDS011;43150;50.986;18.208;2023-07-09T08:16:36;2.70;;;2.40;;
57303;SDS011;43150;50.986;18.208;2023-07-09T08:19:02;7.40;;;2.50;;
57303;SDS011;43150;50.986;18.208;2023-07-09T08:21:29;2.90;;;2.40;;
57303;SDS011;43150;50.986;18.208;2023-07-09T08:23:54;5.60;;;2.30;;
57303;SDS011;43150;50.986;18.208;2023-07-09T08:26:20;3.00;;;2.60;;
57303;SDS011;43150;50.986;18.208;2023-07-09T08:28:45;4.70;;;2.40;;
57303;SDS011;43150;50.986;18.208;2023-07-09T08:31:10;3.30;;;2.50;;
57303;SDS011;43150;50.986;18.208;2023-07-09T08:33:36;2.60;;;2.40;;
57303;SDS011;43150;50.986;18.208;2023-07-09T08:36:01;5.60;;;2.40;;
57303;SDS011;43150;50.986;18.208;2023-07-09T08:38:27;3.60;;;2.60;;
57303;SDS011;43150;50.986;18.208;2023-07-09T08:46:10;6.00;;;2.80;;
57303;SDS011;43150;50.986;18.208;2023-07-09T08:48:44;3.30;;;2.90;;
57303;SDS011;43150;50.986;18.208;2023-07-09T08:51:16;2.80;;;2.60;;
57303;SDS011;43150;50.986;18.208;2023-07-09T08:53:47;5.10;;;2.60;;
57303;SDS011;43150;50.986;18.208;2023-07-09T08:56:14;3.60;;;2.60;;
57303;SDS011;43150;50.986;18.208;2023-07-09T08:58:40;4.10;;;2.70;;
57303;SDS011;43150;50.986;18.208;2023-07-09T09:01:19;4.40;;;2.70;;
57303;SDS011;43150;50.986;18.208;2023-07-09T09:06:37;2.80;;;2.50;;
57303;SDS011;43150;50.986;18.208;2023-07-09T09:11:31;2.80;;;2.50;;
57303;SDS011;43150;50.986;18.208;2023-07-09T09:14:01;2.70;;;2.40;;
57303;SDS011;43150;50.986;18.208;2023-07-09T09:16:28;2.90;;;2.60;;
57303;SDS011;43150;50.986;18.208;2023-07-09T09:18:57;5.20;;;2.70;;
57303;SDS011;43150;50.986;18.208;2023-07-09T09:21:25;3.40;;;2.60;;
57303;SDS011;43150;50.986;18.208;2023-07-09T09:23:57;3.10;;;2.80;;
57303;SDS011;43150;50.986;18.208;2023-07-09T09:26:31;4.80;;;2.50;;
57303;SDS011;43150;50.986;18.208;2023-07-09T09:29:09;4.20;;;2.70;;
57303;SDS011;43150;50.986;18.208;2023-07-09T09:31:35;3.50;;;2.80;;
57303;SDS011;43150;50.986;18.208;2023-07-09T09:34:01;3.30;;;3.00;;
57303;SDS011;43150;50.986;18.208;2023-07-09T09:36:26;4.10;;;3.20;;
57303;SDS011;43150;50.986;18.208;2023-07-09T09:38:55;3.10;;;2.80;;
57303;SDS011;43150;50.986;18.208;2023-07-09T09:41:22;3.70;;;3.00;;
57303;SDS011;43150;50.986;18.208;2023-07-09T09:43:48;6.40;;;2.80;;
57303;SDS011;43150;50.986;18.208;2023-07-09T09:46:16;4.00;;;2.80;;
57303;SDS011;43150;50.986;18.208;2023-07-09T09:48:43;3.70;;;2.80;;
57303;SDS011;43150;50.986;18.208;2023-07-09T09:51:10;3.60;;;2.60;;
57303;SDS011;43150;50.986;18.208;2023-07-09T09:53:37;3.50;;;3.20;;
57303;SDS011;43150;50.986;18.208;2023-07-09T09:56:04;3.20;;;2.80;;
57303;SDS011;43150;50.986;18.208;2023-07-09T09:58:30;3.60;;;3.10;;
57303;SDS011;43150;50.986;18.208;2023-07-09T10:00:57;3.20;;;3.00;;
57303;SDS011;43150;50.986;18.208;2023-07-09T10:03:32;3.60;;;3.00;;
57303;SDS011;43150;50.986;18.208;2023-07-09T10:05:59;4.80;;;3.00;;
57303;SDS011;43150;50.986;18.208;2023-07-09T10:10:59;4.30;;;2.90;;
57303;SDS011;43150;50.986;18.208;2023-07-09T10:13:30;2.90;;;2.60;;
57303;SDS011;43150;50.986;18.208;2023-07-09T10:16:00;6.70;;;2.80;;
57303;SDS011;43150;50.986;18.208;2023-07-09T10:31:41;3.70;;;3.40;;
57303;SDS011;43150;50.986;18.208;2023-07-09T10:39:12;4.30;;;3.30;;
57303;SDS011;43150;50.986;18.208;2023-07-09T10:41:39;3.50;;;3.10;;
57303;SDS011;43150;50.986;18.208;2023-07-09T10:44:09;4.00;;;3.30;;
57303;SDS011;43150;50.986;18.208;2023-07-09T10:46:37;3.30;;;3.00;;
57303;SDS011;43150;50.986;18.208;2023-07-09T10:49:04;3.70;;;2.70;;
57303;SDS011;43150;50.986;18.208;2023-07-09T10:51:32;4.10;;;2.40;;
57303;SDS011;43150;50.986;18.208;2023-07-09T10:54:09;3.80;;;2.30;;
57303;SDS011;43150;50.986;18.208;2023-07-09T10:56:37;2.50;;;2.30;;
57303;SDS011;43150;50.986;18.208;2023-07-09T10:59:09;3.40;;;2.40;;
57303;SDS011;43150;50.986;18.208;2023-07-09T11:01:40;3.90;;;2.40;;
57303;SDS011;43150;50.986;18.208;2023-07-09T11:04:12;3.20;;;2.60;;
57303;SDS011;43150;50.986;18.208;2023-07-09T11:06:49;3.80;;;2.70;;
57303;SDS011;43150;50.986;18.208;2023-07-09T11:09:24;2.40;;;2.20;;
57303;SDS011;43150;50.986;18.208;2023-07-09T11:11:54;3.60;;;2.50;;
57303;SDS011;43150;50.986;18.208;2023-07-09T11:14:35;3.60;;;3.30;;
57303;SDS011;43150;50.986;18.208;2023-07-09T11:19:48;3.60;;;3.30;;
57303;SDS011;43150;50.986;18.208;2023-07-09T11:24:48;3.60;;;3.30;;
57303;SDS011;43150;50.986;18.208;2023-07-09T11:27:20;5.40;;;3.90;;
57303;SDS011;43150;50.986;18.208;2023-07-09T11:29:48;4.70;;;4.20;;
57303;SDS011;43150;50.986;18.208;2023-07-09T11:32:18;4.70;;;4.10;;
57303;SDS011;43150;50.986;18.208;2023-07-09T11:34:44;7.50;;;4.80;;
57303;SDS011;43150;50.986;18.208;2023-07-09T11:37:11;6.60;;;4.50;;
57303;SDS011;43150;50.986;18.208;2023-07-09T11:42:22;5.30;;;4.90;;
57303;SDS011;43150;50.986;18.208;2023-07-09T11:44:48;6.60;;;6.10;;
57303;SDS011;43150;50.986;18.208;2023-07-09T11:52:19;5.20;;;4.70;;
57303;SDS011;43150;50.986;18.208;2023-07-09T11:54:45;6.00;;;4.40;;
57303;SDS011;43150;50.986;18.208;2023-07-09T11:57:12;7.30;;;4.10;;
57303;SDS011;43150;50.986;18.208;2023-07-09T11:59:41;3.80;;;3.50;;
57303;SDS011;43150;50.986;18.208;2023-07-09T12:02:17;3.50;;;3.20;;
57303;SDS011;43150;50.986;18.208;2023-07-09T12:04:44;2.80;;;2.50;;
57303;SDS011;43150;50.986;18.208;2023-07-09T12:07:12;3.20;;;2.50;;
57303;SDS011;43150;50.986;18.208;2023-07-09T12:09:39;3.20;;;2.60;;
57303;SDS011;43150;50.986;18.208;2023-07-09T12:12:17;2.80;;;2.30;;
57303;SDS011;43150;50.986;18.208;2023-07-09T12:14:43;5.20;;;2.10;;
57303;SDS011;43150;50.986;18.208;2023-07-09T12:17:08;2.80;;;2.20;;
57303;SDS011;43150;50.986;18.208;2023-07-09T12:19:34;2.90;;;2.20;;
57303;SDS011;43150;50.986;18.208;2023-07-09T12:21:59;3.50;;;2.00;;
57303;SDS011;43150;50.986;18.208;2023-07-09T12:24:27;4.20;;;2.40;;
57303;SDS011;43150;50.986;18.208;2023-07-09T12:26:53;2.30;;;2.00;;
57303;SDS011;43150;50.986;18.208;2023-07-09T12:29:19;2.50;;;2.00;;
57303;SDS011;43150;50.986;18.208;2023-07-09T12:31:46;2.60;;;2.30;;
57303;SDS011;43150;50.986;18.208;2023-07-09T12:34:12;2.50;;;2.30;;
57303;SDS011;43150;50.986;18.208;2023-07-09T12:36:44;2.90;;;2.20;;
57303;SDS011;43150;50.986;18.208;2023-07-09T12:39:11;2.90;;;2.00;;
57303;SDS011;43150;50.986;18.208;2023-07-09T12:41:39;2.50;;;2.30;;
57303;SDS011;43150;50.986;18.208;2023-07-09T12:44:05;3.90;;;2.50;;
57303;SDS011;43150;50.986;18.208;2023-07-09T12:46:31;2.90;;;2.00;;
57303;SDS011;43150;50.986;18.208;2023-07-09T12:48:57;2.60;;;2.40;;
57303;SDS011;43150;50.986;18.208;2023-07-09T12:51:23;2.50;;;2.30;;
57303;SDS011;43150;50.986;18.208;2023-07-09T12:56:34;3.00;;;2.10;;
57303;SDS011;43150;50.986;18.208;2023-07-09T12:59:00;2.60;;;2.00;;
57303;SDS011;43150;50.986;18.208;2023-07-09T13:01:27;3.10;;;2.30;;
57303;SDS011;43150;50.986;18.208;2023-07-09T13:04:00;4.70;;;2.40;;
57303;SDS011;43150;50.986;18.208;2023-07-09T13:06:28;3.30;;;2.40;;
57303;SDS011;43150;50.986;18.208;2023-07-09T13:08:58;4.80;;;2.60;;
57303;SDS011;43150;50.986;18.208;2023-07-09T13:11:24;3.90;;;2.70;;
57303;SDS011;43150;50.986;18.208;2023-07-09T13:13:56;2.50;;;2.30;;
57303;SDS011;43150;50.986;18.208;2023-07-09T13:16:22;2.90;;;2.70;;
57303;SDS011;43150;50.986;18.208;2023-07-09T13:18:48;11.00;;;10.00;;
57303;SDS011;43150;50.986;18.208;2023-07-09T13:21:15;14.20;;;13.10;;
57303;SDS011;43150;50.986;18.208;2023-07-09T13:23:41;5.10;;;4.70;;
57303;SDS011;43150;50.986;18.208;2023-07-09T13:26:08;3.10;;;2.80;;
57303;SDS011;43150;50.986;18.208;2023-07-09T13:28:34;3.50;;;2.30;;
57303;SDS011;43150;50.986;18.208;2023-07-09T13:31:10;3.00;;;2.60;;
57303;SDS011;43150;50.986;18.208;2023-07-09T13:33:38;5.40;;;4.90;;
57303;SDS011;43150;50.986;18.208;2023-07-09T13:36:04;8.00;;;7.30;;
57303;SDS011;43150;50.986;18.208;2023-07-09T13:38:30;2.60;;;2.40;;
57303;SDS011;43150;50.986;18.208;2023-07-09T13:40:57;2.60;;;2.40;;
57303;SDS011;43150;50.986;18.208;2023-07-09T13:43:28;4.40;;;4.00;;
57303;SDS011;43150;50.986;18.208;2023-07-09T13:45:54;5.40;;;4.90;;
57303;SDS011;43150;50.986;18.208;2023-07-09T13:48:23;11.00;;;10.00;;
57303;SDS011;43150;50.986;18.208;2023-07-09T13:50:50;4.40;;;3.70;;
57303;SDS011;43150;50.986;18.208;2023-07-09T13:53:18;5.60;;;4.80;;
57303;SDS011;43150;50.986;18.208;2023-07-09T13:55:44;7.20;;;6.50;;
57303;SDS011;43150;50.986;18.208;2023-07-09T13:58:11;4.50;;;4.10;;
57303;SDS011;43150;50.986;18.208;2023-07-09T14:00:38;3.50;;;2.90;;
57303;SDS011;43150;50.986;18.208;2023-07-09T14:03:12;4.10;;;2.80;;
57303;SDS011;43150;50.986;18.208;2023-07-09T14:05:39;4.40;;;2.90;;
57303;SDS011;43150;50.986;18.208;2023-07-09T14:08:06;10.70;;;9.70;;
57303;SDS011;43150;50.986;18.208;2023-07-09T14:10:32;3.80;;;3.30;;
57303;SDS011;43150;50.986;18.208;2023-07-09T14:12:58;4.20;;;3.80;;
57303;SDS011;43150;50.986;18.208;2023-07-09T14:15:27;4.70;;;3.60;;
57303;SDS011;43150;50.986;18.208;2023-07-09T14:17:53;6.10;;;5.30;;
57303;SDS011;43150;50.986;18.208;2023-07-09T14:20:21;7.30;;;6.60;;
57303;SDS011;43150;50.986;18.208;2023-07-09T14:22:48;8.70;;;8.00;;
57303;SDS011;43150;50.986;18.208;2023-07-09T14:25:15;9.60;;;8.70;;
57303;SDS011;43150;50.986;18.208;2023-07-09T14:27:40;9.50;;;8.50;;
57303;SDS011;43150;50.986;18.208;2023-07-09T14:30:13;8.80;;;8.00;;
57303;SDS011;43150;50.986;18.208;2023-07-09T14:32:39;8.30;;;7.30;;
57303;SDS011;43150;50.986;18.208;2023-07-09T14:35:23;10.10;;;9.10;;
57303;SDS011;43150;50.986;18.208;2023-07-09T14:37:49;6.30;;;4.70;;
57303;SDS011;43150;50.986;18.208;2023-07-09T14:40:16;3.30;;;2.90;;
57303;SDS011;43150;50.986;18.208;2023-07-09T14:42:54;4.60;;;3.00;;
57303;SDS011;43150;50.986;18.208;2023-07-09T14:47:46;3.20;;;2.80;;
57303;SDS011;43150;50.986;18.208;2023-07-09T14:50:12;4.60;;;3.00;;
57303;SDS011;43150;50.986;18.208;2023-07-09T14:52:38;2.90;;;2.60;;
57303;SDS011;43150;50.986;18.208;2023-07-09T14:55:04;3.90;;;2.80;;
57303;SDS011;43150;50.986;18.208;2023-07-09T14:57:29;3.50;;;2.80;;
57303;SDS011;43150;50.986;18.208;2023-07-09T14:59:56;5.20;;;3.30;;
57303;SDS011;43150;50.986;18.208;2023-07-09T15:02:38;3.70;;;2.70;;
57303;SDS011;43150;50.986;18.208;2023-07-09T15:05:09;3.90;;;2.80;;
57303;SDS011;43150;50.986;18.208;2023-07-09T15:10:04;3.40;;;2.90;;
57303;SDS011;43150;50.986;18.208;2023-07-09T15:12:33;4.10;;;3.00;;
57303;SDS011;43150;50.986;18.208;2023-07-09T15:15:13;3.80;;;2.80;;
57303;SDS011;43150;50.986;18.208;2023-07-09T15:17:40;3.60;;;2.70;;
57303;SDS011;43150;50.986;18.208;2023-07-09T15:20:12;4.30;;;3.10;;
57303;SDS011;43150;50.986;18.208;2023-07-09T15:22:39;3.20;;;2.50;;
57303;SDS011;43150;50.986;18.208;2023-07-09T15:25:08;3.80;;;2.60;;
57303;SDS011;43150;50.986;18.208;2023-07-09T15:27:35;3.10;;;2.80;;
57303;SDS011;43150;50.986;18.208;2023-07-09T15:30:10;4.00;;;2.70;;
57303;SDS011;43150;50.986;18.208;2023-07-09T15:32:36;3.10;;;2.80;;
57303;SDS011;43150;50.986;18.208;2023-07-09T15:35:02;3.80;;;2.70;;